Time;durP1;ratioP1;P1;durP2;ratioP2;P2;SDS_P1;SDS_P2;PMS_P1;PMS_P2;Temp;Humidity;BMP_temperature;BMP_pressure;BME280_temperature;BME280_humidity;BME280_pressure;Samples;Min_cycle;Max_cycle;Signal;HPM_P1;HPM_P2
2022/01/02 00:00:08;;;;;;;11.05;4.15;;;;;;;12.49;63.85;99492.31;4485534;31;20108;-88
2022/01/02 00:02:35;;;;;;;12.70;3.83;;;;;;;12.51;63.61;99490.44;4492765;31;20140;-88
2022/01/02 00:05:06;;;;;;;11.40;4.12;;;;;;;12.48;63.66;99498.56;4479016;31;20093;-88
2022/01/02 00:07:35;;;;;;;11.40;4.10;;;;;;;12.55;63.49;99494.66;4473979;32;20463;-90
2022/01/02 00:10:05;;;;;;;9.88;3.87;;;;;;;12.60;63.23;99494.44;4493702;31;20089;-90
2022/01/02 00:12:35;;;;;;;11.43;3.83;;;;;;;12.50;63.31;99483.47;4473795;31;20155;-89
2022/01/02 00:15:06;;;;;;;11.43;3.42;;;;;;;12.58;63.21;99485.72;4493621;31;20503;-89
2022/01/02 00:17:32;;;;;;;11.63;3.47;;;;;;;12.67;62.91;99481.72;4501311;31;20089;-89
2022/01/02 00:20:08;;;;;;;11.40;3.40;;;;;;;12.58;63.16;99491.84;4501414;31;20123;-88
2022/01/02 00:22:36;;;;;;;11.07;4.18;;;;;;;12.65;62.87;99484.47;4502156;31;20489;-88
2022/01/02 00:25:07;;;;;;;10.52;4.40;;;;;;;12.76;62.37;99481.25;4502895;31;20147;-88
2022/01/02 00:27:34;;;;;;;10.88;3.45;;;;;;;12.84;62.02;99488.78;4502874;31;20368;-85
2022/01/02 00:30:02;;;;;;;10.55;3.45;;;;;;;12.78;62.16;99479.38;4502764;31;20104;-86
2022/01/02 00:32:28;;;;;;;11.65;3.60;;;;;;;13.02;61.22;99479.00;4503015;31;20183;-87
2022/01/02 00:34:54;;;;;;;10.52;3.60;;;;;;;12.93;61.42;99481.22;4502810;31;20081;-87
2022/01/02 00:37:20;;;;;;;10.82;3.90;;;;;;;12.92;61.47;99484.81;4502826;31;20075;-87
2022/01/02 00:39:45;;;;;;;9.20;3.15;;;;;;;12.98;61.33;99479.19;4503011;31;20380;-87
2022/01/02 00:42:15;;;;;;;10.35;3.35;;;;;;;13.03;61.03;99484.22;4502855;31;20119;-87
2022/01/02 00:44:48;;;;;;;9.32;3.22;;;;;;;12.89;61.40;99492.91;4488521;31;20156;-86
2022/01/02 00:47:28;;;;;;;10.57;3.20;;;;;;;12.81;61.59;99492.47;4502741;31;20356;-86
2022/01/02 00:50:02;;;;;;;11.27;3.28;;;;;;;12.78;61.50;99498.75;4488550;31;20135;-86
2022/01/02 00:52:27;;;;;;;10.63;3.25;;;;;;;12.85;61.28;99493.16;4501772;31;20411;-86
2022/01/02 00:54:55;;;;;;;10.77;3.30;;;;;;;12.97;60.88;99484.56;4502814;31;20092;-86
2022/01/02 00:57:28;;;;;;;11.90;3.75;;;;;;;12.76;61.45;99482.09;4502694;31;20076;-86
2022/01/02 01:00:04;;;;;;;9.73;3.15;;;;;;;12.83;61.36;99485.31;4502845;31;20118;-86
2022/01/02 01:02:33;;;;;;;11.23;3.50;;;;;;;12.87;61.20;99480.72;4488518;31;20096;-86
2022/01/02 01:05:03;;;;;;;12.10;3.55;;;;;;;12.91;61.02;99479.59;4488411;31;20088;-86
2022/01/02 01:07:31;;;;;;;9.65;3.70;;;;;;;12.84;61.38;99486.16;4502665;31;20110;-85
2022/01/02 01:09:58;;;;;;;8.73;3.10;;;;;;;12.65;61.94;99486.25;4502773;31;20119;-86
2022/01/02 01:12:24;;;;;;;;;;;;;;;12.76;61.48;99486.53;4502976;31;20103;-86
2022/01/02 01:14:50;;;;;;;11.80;3.53;;;;;;;12.79;61.48;99483.75;4488219;31;20325;-87
2022/01/02 01:17:16;;;;;;;8.93;3.20;;;;;;;12.77;61.29;99483.84;4488044;31;20080;-86
2022/01/02 01:19:42;;;;;;;10.85;3.42;;;;;;;13.04;60.33;99478.03;4502484;31;20150;-86
2022/01/02 01:22:08;;;;;;;10.25;3.25;;;;;;;13.10;60.00;99476.84;4488093;31;20104;-86
2022/01/02 01:24:35;;;;;;;11.48;3.45;;;;;;;12.82;60.76;99477.44;4502478;31;20370;-87
2022/01/02 01:27:06;;;;;;;9.83;3.33;;;;;;;13.00;60.27;99479.12;4475042;31;20159;-86
2022/01/02 01:29:34;;;;;;;10.00;3.47;;;;;;;13.10;59.82;99479.47;4502516;31;20436;-86
2022/01/02 01:32:07;;;;;;;10.77;3.33;;;;;;;12.98;60.14;99476.56;4488359;31;20108;-86
2022/01/02 01:34:33;;;;;;;9.63;3.00;;;;;;;13.18;59.45;99485.22;4487933;31;20114;-86
2022/01/02 01:36:59;;;;;;;11.32;3.47;;;;;;;12.98;59.85;99486.28;4502348;31;20084;-87
2022/01/02 01:39:24;;;;;;;10.20;3.05;;;;;;;13.16;59.21;99485.28;4502620;31;20130;-90
2022/01/02 01:41:52;;;;;;;9.45;3.00;;;;;;;13.10;59.41;99477.69;4502589;31;20083;-87
2022/01/02 01:46:44;;;;;;;8.80;2.67;;;;;;;12.84;59.88;99476.41;4502246;31;19967;-86
2022/01/02 01:49:31;;;;;;;9.05;3.10;;;;;;;13.20;59.06;99482.47;4502244;31;20482;-87
2022/01/02 01:51:57;;;;;;;10.32;3.20;;;;;;;12.94;59.78;99479.44;4502392;31;20087;-87
2022/01/02 01:54:23;;;;;;;13.55;3.00;;;;;;;12.90;59.90;99477.88;4501924;31;20084;-87
2022/01/02 01:56:51;;;;;;;10.60;2.95;;;;;;;12.97;59.76;99471.34;4502039;31;20420;-87
2022/01/02 01:59:19;;;;;;;8.32;3.17;;;;;;;13.12;59.29;99473.16;4488152;31;20088;-87
2022/01/02 02:01:45;;;;;;;;;;;;;;;12.99;59.66;99466.81;4488353;31;20488;-87
2022/01/02 02:04:10;;;;;;;8.07;2.58;;;;;;;13.02;59.31;99466.66;4503133;31;19990;-87
2022/01/02 02:06:37;;;;;;;10.68;3.30;;;;;;;12.90;59.84;99470.81;4489364;31;20106;-87
2022/01/02 02:09:05;;;;;;;10.80;3.00;;;;;;;12.89;59.89;99470.91;4504062;31;20100;-87
2022/01/02 02:11:31;;;;;;;9.57;3.08;;;;;;;13.09;59.47;99472.47;4489663;31;20124;-87
2022/01/02 02:13:57;;;;;;;10.98;3.20;;;;;;;13.19;59.15;99478.97;4503900;31;20152;-87
2022/01/02 02:16:23;;;;;;;10.07;3.28;;;;;;;13.07;59.37;99472.53;4489369;31;20099;-86
2022/01/02 02:18:49;;;;;;;8.90;2.67;;;;;;;13.07;59.40;99469.91;4503914;31;20145;-87
2022/01/02 02:21:15;;;;;;;10.52;2.92;;;;;;;13.12;59.27;99469.66;4504149;31;20088;-87
2022/01/02 02:23:42;;;;;;;10.38;3.58;;;;;;;12.92;59.94;99462.78;4504120;31;20431;-87
2022/01/02 02:26:08;;;;;;;9.40;3.17;;;;;;;13.02;59.73;99468.44;4504183;31;20092;-87
2022/01/02 02:28:34;;;;;;;8.60;3.22;;;;;;;13.04;59.71;99461.28;4503785;31;20091;-86
2022/01/02 02:30:59;;;;;;;10.02;3.60;;;;;;;13.02;59.76;99461.38;4504120;31;20096;-86
2022/01/02 02:33:25;;;;;;;10.65;3.58;;;;;;;13.01;59.86;99466.75;4504005;31;20079;-86
2022/01/02 02:35:51;;;;;;;10.43;3.60;;;;;;;12.79;60.45;99465.25;4503980;31;20124;-86
2022/01/02 02:38:18;;;;;;;11.48;3.60;;;;;;;12.98;59.83;99468.63;4503962;31;20440;-87
2022/01/02 02:40:43;;;;;;;11.07;3.40;;;;;;;12.82;60.41;99466.87;4504157;31;20380;-86
2022/01/02 02:51:18;;;;;;;10.50;3.75;;;;;;;13.00;59.86;99450.03;4491626;31;20160;-86
2022/01/02 02:53:45;;;;;;;11.45;3.80;;;;;;;12.89;60.37;99455.88;4503583;31;20115;-87
2022/01/02 02:58:44;;;;;;;11.63;3.50;;;;;;;12.95;60.31;99462.63;4503561;31;20108;-86
2022/01/02 03:01:12;;;;;;;12.23;3.90;;;;;;;12.81;60.70;99460.72;4489570;31;20099;-86
2022/01/02 03:03:39;;;;;;;11.38;3.70;;;;;;;12.79;60.88;99460.81;4503535;31;20617;-87
2022/01/02 03:06:06;;;;;;;11.70;3.50;;;;;;;12.91;60.49;99450.53;4503607;31;20102;-86
2022/01/02 03:08:32;;;;;;;12.13;3.83;;;;;;;12.80;60.87;99453.72;4503860;31;20093;-86
2022/01/02 03:10:58;;;;;;;10.88;3.60;;;;;;;12.86;60.64;99448.09;4489357;31;20485;-86
2022/01/02 03:13:23;;;;;;;10.15;3.72;;;;;;;12.84;60.68;99449.97;4503796;31;20088;-86
2022/01/02 03:15:49;;;;;;;9.60;3.33;;;;;;;12.79;60.75;99446.75;4502631;31;20119;-86
2022/01/02 03:18:14;;;;;;;11.07;3.58;;;;;;;12.83;60.63;99447.44;4503375;31;20122;-86
2022/01/02 03:20:40;;;;;;;10.15;3.33;;;;;;;12.86;60.52;99448.09;4503512;31;20355;-87
2022/01/02 03:23:05;;;;;;;10.45;3.80;;;;;;;12.84;60.55;99447.31;4488894;31;20147;-86
2022/01/02 03:25:31;;;;;;;9.88;3.40;;;;;;;12.81;60.77;99444.03;4503335;31;20118;-87
2022/01/02 03:27:56;;;;;;;10.25;3.55;;;;;;;12.70;60.92;99440.12;4489242;31;20172;-87
2022/01/02 03:30:21;;;;;;;10.23;3.60;;;;;;;12.66;61.07;99435.09;4503614;31;20115;-87
2022/01/02 03:32:47;;;;;;;11.20;3.25;;;;;;;12.76;60.91;99437.16;4489140;31;20084;-87
2022/01/02 03:35:12;;;;;;;11.93;3.80;;;;;;;12.64;61.30;99429.87;4503551;31;20329;-86
2022/01/02 03:37:37;;;;;;;13.13;3.65;;;;;;;12.54;61.50;99431.31;4503684;31;20523;-87
2022/01/02 03:40:06;;;;;;;10.40;3.55;;;;;;;12.58;61.37;99423.13;4503466;31;20118;-87
2022/01/02 03:42:32;;;;;;;9.93;3.47;;;;;;;12.64;61.32;99421.13;4489260;31;20103;-87
2022/01/02 03:44:58;;;;;;;10.20;3.75;;;;;;;12.67;61.07;99415.66;4503534;31;20151;-87
2022/01/02 03:47:23;;;;;;;11.73;3.70;;;;;;;12.76;60.81;99417.81;4503253;31;20108;-87
2022/01/02 03:49:49;;;;;;;11.45;4.22;;;;;;;12.80;60.52;99419.34;4488980;31;20126;-87
2022/01/02 03:52:14;;;;;;;10.77;3.75;;;;;;;12.81;60.50;99418.44;4503243;31;20115;-87
2022/01/02 03:54:40;;;;;;;12.50;3.83;;;;;;;12.82;60.45;99421.91;4488922;31;20133;-87
2022/01/02 03:57:05;;;;;;;11.15;3.85;;;;;;;12.78;60.58;99430.00;4503483;31;20096;-86
2022/01/02 03:59:31;;;;;;;10.57;3.40;;;;;;;12.81;60.55;99428.16;4503207;31;20809;-87
2022/01/02 04:01:56;;;;;;;12.32;3.62;;;;;;;12.78;60.60;99419.41;4503219;31;20147;-87
2022/01/02 04:04:22;;;;;;;12.07;3.80;;;;;;;12.77;60.64;99419.53;4503176;31;20126;-87
2022/01/02 04:06:47;;;;;;;12.35;3.97;;;;;;;12.89;60.25;99421.50;4503048;31;20116;-86
2022/01/02 04:09:12;;;;;;;12.20;4.00;;;;;;;12.87;60.28;99419.88;4503098;31;20084;-86
2022/01/02 04:11:38;;;;;;;9.52;3.42;;;;;;;12.86;60.27;99420.81;4503096;31;20340;-86
2022/01/02 04:14:03;;;;;;;9.98;3.22;;;;;;;12.87;60.23;99409.31;4502900;31;20092;-86
2022/01/02 04:16:29;;;;;;;9.13;3.30;;;;;;;12.88;60.19;99411.84;4503005;31;20100;-85
2022/01/02 04:18:54;;;;;;;10.68;3.40;;;;;;;12.86;60.25;99419.00;4503136;31;20128;-86
2022/01/02 04:21:19;;;;;;;8.70;2.75;;;;;;;12.89;60.03;99416.22;4503071;31;20104;-87
2022/01/02 04:23:45;;;;;;;9.15;2.62;;;;;;;12.90;59.86;99415.28;4502959;31;20088;-87
2022/01/02 04:26:10;;;;;;;9.75;2.70;;;;;;;12.90;59.81;99417.06;4502905;31;20111;-86
2022/01/02 04:28:36;;;;;;;7.97;2.70;;;;;;;12.94;59.43;99413.31;4502937;31;20091;-87
2022/01/02 04:31:01;;;;;;;7.20;2.30;;;;;;;12.90;59.44;99417.94;4503233;31;20118;-86
2022/01/02 04:33:27;;;;;;;5.80;1.85;;;;;;;12.90;59.39;99417.94;4502907;31;20103;-86
2022/01/02 04:35:52;;;;;;;6.18;1.80;;;;;;;12.90;59.25;99419.69;4502765;31;20092;-86
2022/01/02 04:38:18;;;;;;;6.78;1.67;;;;;;;12.91;59.11;99416.13;4502933;31;20096;-86
2022/01/02 04:40:44;;;;;;;6.30;1.80;;;;;;;12.89;58.92;99421.50;4502852;31;20092;-85
2022/01/02 04:43:09;;;;;;;4.87;1.60;;;;;;;12.90;58.61;99425.88;4503136;31;20133;-86
2022/01/02 04:45:34;;;;;;;6.30;2.00;;;;;;;12.86;58.47;99429.59;4503117;31;20114;-86
2022/01/02 04:48:00;;;;;;;4.53;1.62;;;;;;;12.80;58.25;99427.28;4503115;31;20088;-86
2022/01/02 04:50:26;;;;;;;4.80;1.70;;;;;;;12.84;57.74;99422.69;4503189;31;20079;-86
2022/01/02 04:52:51;;;;;;;4.50;1.50;;;;;;;12.79;57.46;99418.50;4503045;31;20106;-86
2022/01/02 04:55:17;;;;;;;5.72;1.50;;;;;;;12.77;57.32;99415.09;4503007;31;20096;-86
2022/01/02 04:57:42;;;;;;;5.53;1.33;;;;;;;12.79;57.19;99417.66;4503038;31;20098;-86
2022/01/02 05:00:09;;;;;;;6.22;1.60;;;;;;;12.78;57.12;99419.41;4502996;31;20092;-85
2022/01/02 05:02:34;;;;;;;5.47;1.67;;;;;;;12.81;56.99;99422.88;4488625;31;20194;-86
2022/01/02 05:04:59;;;;;;;5.93;1.50;;;;;;;12.81;56.72;99421.06;4502807;31;20153;-86
2022/01/02 05:07:25;;;;;;;4.55;1.42;;;;;;;12.27;57.87;99421.25;4488578;31;20126;-86
2022/01/02 05:09:50;;;;;;;6.35;1.55;;;;;;;12.46;57.53;99417.62;4502984;31;20118;-86
2022/01/02 05:12:16;;;;;;;6.18;1.95;;;;;;;12.57;57.25;99420.56;4488489;31;20146;-86
2022/01/02 05:14:41;;;;;;;5.68;1.60;;;;;;;12.46;57.59;99417.62;4502787;31;20551;-86
2022/01/02 05:17:07;;;;;;;5.32;1.52;;;;;;;12.62;57.29;99400.03;4502653;31;20156;-85
2022/01/02 05:19:32;;;;;;;5.12;1.50;;;;;;;12.64;57.29;99399.97;4502829;31;20087;-86
2022/01/02 05:21:58;;;;;;;6.50;1.50;;;;;;;12.62;57.33;99401.84;4502806;31;20084;-85
2022/01/02 05:24:23;;;;;;;8.25;1.90;;;;;;;12.63;57.20;99400.88;4502637;31;20135;-86
2022/01/02 05:26:49;;;;;;;7.90;2.10;;;;;;;12.56;57.46;99403.03;4502678;31;20080;-86
2022/01/02 05:29:15;;;;;;;7.62;2.17;;;;;;;12.55;57.50;99411.88;4502721;31;20158;-85
2022/01/02 05:31:41;;;;;;;7.93;2.03;;;;;;;12.60;57.60;99407.19;4502739;31;20103;-86
2022/01/02 05:34:07;;;;;;;7.82;2.00;;;;;;;12.55;57.89;99406.59;4502611;31;20088;-86
2022/01/02 05:36:32;;;;;;;6.45;2.05;;;;;;;12.58;57.82;99404.63;4502300;31;20200;-86
2022/01/02 05:38:57;;;;;;;7.30;1.92;;;;;;;12.59;57.88;99408.13;4501586;31;20079;-86
2022/01/02 05:41:23;;;;;;;7.00;2.08;;;;;;;12.58;58.02;99407.28;4502263;31;20438;-86
2022/01/02 05:43:48;;;;;;;7.40;1.80;;;;;;;12.60;58.17;99399.28;4502182;31;20092;-86
2022/01/02 05:46:15;;;;;;;6.60;2.08;;;;;;;12.61;58.26;99392.19;4502208;31;20092;-86
2022/01/02 05:48:40;;;;;;;8.82;2.30;;;;;;;12.59;58.43;99395.78;4502168;31;20132;-86
2022/01/02 05:51:06;;;;;;;7.35;2.30;;;;;;;12.60;58.41;99399.28;4502155;31;20099;-86
2022/01/02 05:53:31;;;;;;;9.07;2.60;;;;;;;12.63;58.43;99396.44;4502088;31;20187;-86
2022/01/02 05:55:57;;;;;;;10.27;3.05;;;;;;;12.59;58.50;99395.78;4501959;31;20116;-86
2022/01/02 05:58:22;;;;;;;12.77;3.58;;;;;;;12.59;58.63;99394.91;4502043;31;20079;-86
2022/01/02 06:00:48;;;;;;;12.07;3.35;;;;;;;12.60;58.68;99386.06;4502022;31;20105;-86
2022/01/02 06:03:13;;;;;;;10.18;2.78;;;;;;;12.35;59.42;99386.50;4501868;31;20096;-86
2022/01/02 06:05:39;;;;;;;9.93;2.92;;;;;;;12.51;58.67;99381.25;4501874;31;20089;-86
2022/01/02 06:08:04;;;;;;;10.25;3.08;;;;;;;12.55;58.46;99388.09;4501813;31;20087;-86
2022/01/02 06:10:29;;;;;;;11.65;3.53;;;;;;;12.56;58.71;99385.38;4501849;31;20081;-87
2022/01/02 06:12:55;;;;;;;9.57;3.00;;;;;;;12.58;58.69;99390.56;4487282;31;20150;-86
2022/01/02 06:15:20;;;;;;;9.07;2.80;;;;;;;12.50;58.76;99382.22;4501537;31;20111;-86
2022/01/02 06:17:45;;;;;;;9.25;2.80;;;;;;;12.53;58.60;99382.88;4501524;31;20497;-86
2022/01/02 06:20:11;;;;;;;10.57;3.12;;;;;;;12.55;58.50;99380.16;4501720;31;20416;-86
2022/01/02 06:22:36;;;;;;;10.52;3.62;;;;;;;12.54;58.41;99381.09;4501676;31;20080;-87
2022/01/02 06:25:03;;;;;;;10.13;3.47;;;;;;;12.56;58.41;99381.88;4501667;31;20093;-87
2022/01/02 06:27:28;;;;;;;9.00;2.37;;;;;;;12.57;58.38;99383.56;4501588;31;20096;-86
2022/01/02 06:29:54;;;;;;;8.80;2.95;;;;;;;12.56;58.30;99382.72;4501581;31;20226;-86
2022/01/02 06:32:19;;;;;;;8.00;2.35;;;;;;;12.51;58.07;99379.47;4501635;31;20085;-86
2022/01/02 06:34:46;;;;;;;8.30;2.65;;;;;;;12.44;57.90;99375.44;4501582;31;20096;-86
2022/01/02 06:37:12;;;;;;;8.45;2.65;;;;;;;12.41;58.79;99378.25;4501590;31;20099;-87
2022/01/02 06:39:37;;;;;;;9.43;2.70;;;;;;;12.50;58.57;99376.91;4501459;31;20435;-86
2022/01/02 06:42:03;;;;;;;8.65;2.55;;;;;;;12.54;58.38;99376.66;4501505;31;20114;-86
2022/01/02 06:44:29;;;;;;;6.53;2.00;;;;;;;12.57;58.16;99378.28;4487120;31;20345;-86
2022/01/02 06:46:54;;;;;;;7.15;2.30;;;;;;;12.62;58.04;99385.97;4501450;31;20147;-86
2022/01/02 06:49:19;;;;;;;5.37;1.60;;;;;;;12.61;57.87;99381.63;4501466;31;20108;-86
2022/01/02 06:51:45;;;;;;;6.05;1.60;;;;;;;12.64;57.60;99379.66;4502934;31;20405;-86
2022/01/02 06:54:10;;;;;;;4.55;1.50;;;;;;;12.67;57.36;99379.53;4503677;31;20370;-86
2022/01/02 06:56:36;;;;;;;6.47;1.77;;;;;;;12.66;57.34;99377.78;4503797;31;20113;-85
2022/01/02 06:59:01;;;;;;;5.78;1.70;;;;;;;12.68;57.05;99372.44;4489363;31;20119;-85
2022/01/02 07:01:27;;;;;;;6.40;1.77;;;;;;;12.75;57.01;99392.31;4503687;31;20088;-86
2022/01/02 07:03:52;;;;;;;5.78;1.67;;;;;;;12.77;56.85;99388.66;4503545;31;20076;-86
2022/01/02 07:06:17;;;;;;;5.30;1.62;;;;;;;12.78;56.69;99389.50;4503479;31;20110;-86
2022/01/02 07:08:43;;;;;;;8.52;2.53;;;;;;;12.85;56.01;99392.69;4489186;31;20100;-86
2022/01/02 07:11:10;;;;;;;7.20;2.00;;;;;;;12.65;56.28;99396.38;4503390;31;20087;-86
2022/01/02 07:13:35;;;;;;;8.80;2.90;;;;;;;12.72;56.16;99395.97;4503629;31;20134;-86
2022/01/02 07:16:01;;;;;;;10.50;3.40;;;;;;;12.77;55.99;99396.59;4503459;31;20076;-88
2022/01/02 07:18:26;;;;;;;10.00;3.30;;;;;;;12.76;56.24;99397.50;4503263;31;20102;-87
2022/01/02 07:20:52;;;;;;;9.75;3.33;;;;;;;12.78;56.16;99387.69;4503465;31;20279;-87
2022/01/02 07:23:17;;;;;;;9.82;3.40;;;;;;;12.81;56.35;99407.00;4503528;31;20458;-87
2022/01/02 07:25:42;;;;;;;9.00;3.00;;;;;;;12.69;56.55;99404.06;4503325;31;20100;-87
2022/01/02 07:28:08;;;;;;;10.32;3.35;;;;;;;12.71;56.57;99402.19;4503410;31;20386;-86
2022/01/02 07:30:33;;;;;;;8.93;2.90;;;;;;;12.65;56.83;99393.72;4503378;31;20160;-86
2022/01/02 07:33:02;;;;;;;8.98;2.83;;;;;;;12.65;57.07;99386.69;4503564;31;20439;-86
2022/01/02 07:35:29;;;;;;;10.55;2.87;;;;;;;12.68;57.30;99383.84;4489357;31;20352;-86
2022/01/02 07:37:54;;;;;;;9.77;3.10;;;;;;;12.75;57.45;99389.69;4503296;31;20593;-86
2022/01/02 07:40:19;;;;;;;9.18;2.85;;;;;;;12.94;56.32;99386.88;4503383;31;20123;-86
2022/01/02 07:42:45;;;;;;;11.52;3.60;;;;;;;12.95;56.26;99378.84;4503283;31;20431;-87
2022/01/02 07:45:12;;;;;;;10.25;3.42;;;;;;;12.90;56.00;99365.06;4503263;31;20102;-87
2022/01/02 07:47:40;;;;;;;10.98;3.70;;;;;;;12.91;56.27;99379.97;4503351;31;20145;-87
2022/01/02 07:50:07;;;;;;;10.90;3.70;;;;;;;12.97;55.60;99382.25;4503171;31;20112;-87
2022/01/02 07:52:32;;;;;;;12.85;4.05;;;;;;;12.85;55.90;99376.81;4488781;31;20103;-87
2022/01/02 07:54:57;;;;;;;10.15;3.65;;;;;;;12.96;55.85;99379.69;4503082;31;20391;-90
2022/01/02 07:57:23;;;;;;;10.75;3.80;;;;;;;12.94;55.96;99379.81;4503491;31;20110;-90
2022/01/02 07:59:48;;;;;;;9.57;3.47;;;;;;;12.91;56.43;99377.31;4503267;31;20367;-93
2022/01/02 08:02:14;;;;;;;11.15;4.00;;;;;;;13.01;56.33;99379.47;4502819;31;20118;-87
2022/01/02 08:04:39;;;;;;;10.55;3.83;;;;;;;13.00;56.50;99378.63;4485883;31;20461;-86
2022/01/02 08:07:04;;;;;;;11.55;3.95;;;;;;;12.97;56.33;99362.91;4495008;31;20103;-92
2022/01/02 08:09:30;;;;;;;10.90;4.10;;;;;;;13.13;56.09;99355.84;4476029;32;20158;-83
2022/01/02 08:11:55;;;;;;;9.85;3.35;;;;;;;12.96;56.41;99348.84;4493169;31;20428;-83
2022/01/02 08:14:21;;;;;;;10.55;4.10;;;;;;;13.21;56.01;99352.72;4491382;31;20088;-82
2022/01/02 08:16:47;;;;;;;11.20;3.95;;;;;;;13.23;56.08;99355.31;4494679;31;20097;-82
2022/01/02 08:19:13;;;;;;;11.23;4.12;;;;;;;13.26;56.00;99349.84;4497518;31;20484;-82
2022/01/02 08:21:39;;;;;;;11.75;4.10;;;;;;;13.35;55.54;99344.91;4475106;31;20124;-83
2022/01/02 08:24:05;;;;;;;11.60;4.82;;;;;;;13.45;55.21;99352.34;4497325;31;20115;-82
2022/01/02 08:26:30;;;;;;;11.88;5.07;;;;;;;13.48;55.04;99346.84;4482061;32;20088;-83
2022/01/02 08:29:00;;;;;;;11.27;4.85;;;;;;;13.22;55.44;99349.16;4495161;31;20092;-84
2022/01/02 08:31:25;;;;;;;11.80;4.70;;;;;;;13.46;55.27;99348.72;4486779;31;20100;-83
2022/01/02 08:33:51;;;;;;;14.10;5.40;;;;;;;13.45;55.27;99352.34;4499593;31;20111;-84
2022/01/02 08:36:16;;;;;;;13.90;5.87;;;;;;;13.54;55.11;99346.50;4490932;31;20084;-83
2022/01/02 08:38:42;;;;;;;12.27;4.18;;;;;;;13.54;55.15;99342.06;4495148;31;20559;-83
2022/01/02 08:41:07;;;;;;;11.77;4.10;;;;;;;13.57;55.16;99348.97;4478202;32;20110;-83
2022/01/02 08:43:34;;;;;;;12.43;4.28;;;;;;;13.57;55.40;99344.53;4499330;31;20128;-83
2022/01/02 08:45:59;;;;;;;11.82;4.53;;;;;;;13.60;55.54;99343.50;4489084;31;20093;-84
2022/01/02 08:48:25;;;;;;;13.00;4.78;;;;;;;13.77;54.92;99334.56;4488264;31;20130;-84
2022/01/02 08:50:51;;;;;;;13.90;5.55;;;;;;;13.82;54.80;99337.81;4502894;31;20390;-84
2022/01/02 08:53:17;;;;;;;13.40;5.30;;;;;;;13.72;54.90;99336.66;4502996;31;20523;-84
2022/01/02 08:55:43;;;;;;;12.45;5.53;;;;;;;13.83;54.78;99336.88;4502526;31;20073;-84
2022/01/02 08:58:08;;;;;;;15.55;5.62;;;;;;;13.79;54.97;99330.06;4502652;31;20379;-84
2022/01/02 09:00:34;;;;;;;12.90;5.60;;;;;;;13.96;54.49;99324.59;4494493;31;20108;-84
2022/01/02 09:03:00;;;;;;;12.48;5.43;;;;;;;14.10;54.30;99313.16;4486996;32;20107;-84
2022/01/02 09:05:26;;;;;;;16.08;5.95;;;;;;;14.16;54.32;99317.25;4487104;32;20124;-83
2022/01/02 09:07:52;;;;;;;14.45;6.35;;;;;;;14.13;54.52;99320.91;4487050;32;20120;-83
2022/01/02 09:10:18;;;;;;;14.10;5.93;;;;;;;14.27;54.28;99321.88;4487069;32;20136;-84
2022/01/02 09:12:44;;;;;;;12.57;5.28;;;;;;;14.35;53.61;99325.78;4486688;32;20092;-84
2022/01/02 09:15:10;;;;;;;13.30;5.62;;;;;;;14.45;53.52;99328.69;4486288;32;20137;-83
2022/01/02 09:17:36;;;;;;;12.63;5.62;;;;;;;14.52;52.96;99331.81;4486484;32;20092;-83
2022/01/02 09:20:01;;;;;;;14.55;6.25;;;;;;;14.41;53.34;99319.25;4486746;32;20122;-83
2022/01/02 09:22:26;;;;;;;14.13;6.03;;;;;;;14.40;53.66;99319.34;4486560;32;20080;-83
2022/01/02 09:24:53;;;;;;;15.40;6.10;;;;;;;14.52;53.45;99318.56;4486675;32;20107;-84
2022/01/02 09:27:18;;;;;;;14.18;5.15;;;;;;;14.53;53.51;99318.47;4486533;32;20435;-84
2022/01/02 09:29:44;;;;;;;15.25;4.35;;;;;;;14.50;53.68;99328.41;4472289;32;20111;-84
2022/01/02 09:32:09;;;;;;;11.52;3.65;;;;;;;14.37;53.91;99325.69;4486577;32;20119;-84
2022/01/02 09:34:35;;;;;;;8.05;2.65;;;;;;;14.51;53.53;99333.62;4488385;31;20080;-84
2022/01/02 09:37:01;;;;;;;8.80;2.58;;;;;;;14.66;52.26;99331.84;4492549;31;20435;-88
2022/01/02 09:39:27;;;;;;;8.60;2.47;;;;;;;14.73;52.30;99324.34;4493460;31;20143;-92
2022/01/02 09:41:53;;;;;;;7.55;2.28;;;;;;;14.75;52.35;99312.69;4489987;31;20235;-87
2022/01/02 09:44:19;;;;;;;7.95;2.75;;;;;;;14.72;52.25;99304.09;4474354;31;20135;-85
2022/01/02 09:46:44;;;;;;;8.05;2.42;;;;;;;14.82;52.05;99291.94;4492848;31;20135;-85
2022/01/02 09:49:10;;;;;;;10.15;2.80;;;;;;;14.92;51.33;99286.91;4477637;32;20100;-86
2022/01/02 09:51:36;;;;;;;9.88;2.42;;;;;;;14.88;51.67;99283.59;4479853;31;20368;-85
2022/01/02 09:54:01;;;;;;;10.32;2.50;;;;;;;15.02;51.45;99276.53;4486103;32;20136;-85
2022/01/02 09:56:26;;;;;;;9.15;3.08;;;;;;;15.07;51.62;99264.69;4486154;32;20112;-85
2022/01/02 09:58:52;;;;;;;8.57;2.58;;;;;;;15.10;51.38;99256.53;4486457;32;20120;-86
2022/01/02 10:01:23;;;;;;;11.55;2.67;;;;;;;15.17;50.85;99254.31;4478087;32;20165;-86
2022/01/02 10:03:53;;;;;;;10.07;3.78;;;;;;;15.20;51.04;99253.25;4490042;31;20093;-84
2022/01/02 10:06:19;;;;;;;10.70;4.60;;;;;;;15.20;50.95;99263.84;4482693;31;20083;-84
2022/01/02 10:08:46;;;;;;;12.37;5.47;;;;;;;15.24;51.22;99260.03;4493111;31;20129;-86
2022/01/02 10:11:19;;;;;;;10.23;3.25;;;;;;;15.25;51.27;99262.59;4484398;32;20080;-87
2022/01/02 10:13:50;;;;;;;10.60;2.58;;;;;;;15.34;50.28;99253.19;4486707;31;20579;-86
2022/01/02 10:16:22;;;;;;;11.88;3.50;;;;;;;15.29;50.65;99245.53;4494927;31;20097;-85
2022/01/02 10:18:48;;;;;;;10.95;4.85;;;;;;;15.27;50.26;99246.59;4492269;31;20482;-84
2022/01/02 10:21:33;;;;;;;16.27;7.22;;;;;;;15.27;50.51;99252.75;4475050;32;20092;-86
2022/01/02 10:24:09;;;;;;;15.73;6.30;;;;;;;15.33;50.75;99254.13;4484873;32;20105;-85
2022/01/02 10:26:35;;;;;;;16.40;7.28;;;;;;;15.38;50.92;99251.19;4486839;31;20108;-86
2022/01/02 10:29:11;;;;;;;10.90;3.22;;;;;;;15.46;50.71;99244.41;4496381;31;20480;-86
2022/01/02 10:31:36;;;;;;;9.30;2.45;;;;;;;15.54;49.66;99226.13;4476124;31;20122;-86
2022/01/02 10:34:02;;;;;;;8.27;2.28;;;;;;;15.54;49.79;99212.00;4500005;31;20116;-85
2022/01/02 10:36:32;;;;;;;8.07;2.50;;;;;;;15.53;48.90;99207.66;4479658;31;20197;-86
2022/01/02 10:39:09;;;;;;;7.60;1.95;;;;;;;15.58;49.21;99202.03;4494052;31;20930;-85
2022/01/02 10:41:48;;;;;;;8.52;2.30;;;;;;;15.60;49.01;99190.34;4500481;31;20143;-86
2022/01/02 10:44:24;;;;;;;7.47;2.60;;;;;;;15.63;48.58;99191.97;4491994;31;20127;-86
2022/01/02 10:47:11;;;;;;;10.27;2.70;;;;;;;15.63;48.53;99190.12;4494514;31;20451;-86
2022/01/02 10:49:53;;;;;;;9.45;2.50;;;;;;;15.59;48.06;99199.28;4500488;31;20088;-86
2022/01/02 10:52:39;;;;;;;11.12;3.92;;;;;;;15.45;48.29;99197.56;4478126;31;20110;-86
2022/01/02 10:55:12;;;;;;;16.52;7.80;;;;;;;15.48;48.96;99189.38;4479452;31;20091;-86
2022/01/02 10:57:39;;;;;;;16.83;8.27;;;;;;;15.60;49.34;99184.19;4500358;31;20126;-84
2022/01/02 11:00:06;;;;;;;15.00;6.87;;;;;;;15.46;49.73;99178.03;4488720;31;20120;-84
2022/01/02 11:02:32;;;;;;;17.20;8.02;;;;;;;15.56;49.45;99172.09;4494225;31;20447;-82
2022/01/02 11:05:00;;;;;;;16.48;8.25;;;;;;;15.61;49.47;99164.66;4479413;32;20122;-85
2022/01/02 11:07:26;;;;;;;16.55;7.85;;;;;;;15.51;49.71;99165.28;4499644;31;20127;-84
2022/01/02 11:09:54;;;;;;;12.13;4.87;;;;;;;15.57;49.69;99158.69;4500933;31;20315;-86
2022/01/02 11:12:19;;;;;;;;;;;;;;;15.53;49.35;99162.53;4487654;31;20159;-85
2022/01/02 11:14:46;;;;;;;17.52;6.72;;;;;;;15.57;49.35;99153.41;4495063;31;19975;-84
2022/01/02 11:17:13;;;;;;;10.43;3.25;;;;;;;15.61;48.81;99143.41;4487992;31;20080;-88
2022/01/02 11:19:38;;;;;;;14.95;5.68;;;;;;;15.48;48.46;99138.09;4488124;31;20427;-89
2022/01/02 11:22:04;;;;;;;14.45;6.87;;;;;;;15.59;48.91;99140.84;4488257;31;20107;-87
2022/01/02 11:24:33;;;;;;;19.67;10.30;;;;;;;15.56;49.01;99134.91;4487828;31;20416;-91
2022/01/02 11:27:04;;;;;;;17.23;7.20;;;;;;;15.57;49.44;99129.50;4486325;32;20144;-90
2022/01/02 11:29:31;;;;;;;17.83;9.57;;;;;;;15.59;49.14;99132.87;4487825;31;20092;-88
2022/01/02 11:31:57;;;;;;;17.17;8.60;;;;;;;15.51;49.30;99132.56;4487598;31;20088;-90
2022/01/02 11:34:27;;;;;;;17.37;7.72;;;;;;;15.48;49.49;99128.31;4486263;32;20173;-90
2022/01/02 11:37:13;;;;;;;10.48;3.42;;;;;;;15.51;49.37;99125.47;4486910;31;20101;-90
2022/01/02 11:39:56;;;;;;;8.48;2.65;;;;;;;15.50;48.02;99120.25;4487592;31;20600;-90